createdAt,value
2023-01-27T00:00:20.580Z,11.90
2023-01-27T00:02:48.010Z,11.60
2023-01-27T00:05:16.214Z,9.70
2023-01-27T00:07:46.677Z,11.05
2023-01-27T00:10:15.850Z,10.27
2023-01-27T00:13:02.047Z,10.80
2023-01-27T00:15:29.670Z,8.80
2023-01-27T00:17:56.916Z,9.33
2023-01-27T00:20:42.957Z,8.55
2023-01-27T00:23:36.804Z,8.48
2023-01-27T00:26:06.855Z,8.60
2023-01-27T00:28:37.661Z,8.82
2023-01-27T00:31:06.159Z,7.47
2023-01-27T00:33:34.443Z,8.30
2023-01-27T00:36:06.497Z,7.55
2023-01-27T00:38:40.810Z,7.18
2023-01-27T00:41:20.774Z,8.32
2023-01-27T00:43:52.350Z,8.97
2023-01-27T00:46:20.609Z,7.95
2023-01-27T00:48:48.051Z,7.30
2023-01-27T00:51:15.587Z,6.95
2023-01-27T00:53:42.925Z,7.97
2023-01-27T00:56:10.596Z,8.10
2023-01-27T00:58:37.911Z,7.80
2023-01-27T01:01:07.263Z,7.43
2023-01-27T01:03:35.150Z,7.25
2023-01-27T01:06:04.988Z,8.32
2023-01-27T01:08:32.990Z,7.73
2023-01-27T01:11:00.415Z,7.90
2023-01-27T01:13:28.474Z,7.38
2023-01-27T01:15:56.285Z,7.18
2023-01-27T01:18:23.864Z,8.20
2023-01-27T01:20:51.170Z,7.17
2023-01-27T01:23:18.504Z,8.23
2023-01-27T01:25:53.358Z,8.52
2023-01-27T01:28:21.016Z,8.38
2023-01-27T01:30:48.272Z,8.43
2023-01-27T01:33:16.225Z,8.33
2023-01-27T01:35:43.478Z,7.78
2023-01-27T01:38:10.884Z,7.40
2023-01-27T01:40:44.365Z,8.38
2023-01-27T01:43:16.178Z,7.95
2023-01-27T01:45:45.426Z,7.60
2023-01-27T01:48:17.047Z,6.00
2023-01-27T01:50:47.600Z,6.40
2023-01-27T01:53:14.953Z,5.53
2023-01-27T01:55:42.243Z,5.50
2023-01-27T01:58:10.695Z,5.00
2023-01-27T02:00:37.919Z,6.20
2023-01-27T02:03:05.358Z,5.25
2023-01-27T02:05:37.967Z,4.90
2023-01-27T02:08:12.188Z,3.58
2023-01-27T02:10:39.943Z,4.80
2023-01-27T02:13:07.872Z,5.30
2023-01-27T02:15:36.660Z,5.05
2023-01-27T02:18:04.079Z,5.43
2023-01-27T02:20:50.567Z,4.70
2023-01-27T02:23:18.631Z,4.23
2023-01-27T02:25:51.365Z,5.03
2023-01-27T02:28:18.745Z,4.20
2023-01-27T02:30:46.076Z,4.55
2023-01-27T02:33:14.079Z,4.65
2023-01-27T02:36:01.397Z,4.03
2023-01-27T02:38:31.722Z,4.43
2023-01-27T02:41:01.955Z,5.60
2023-01-27T02:43:29.368Z,4.53
2023-01-27T02:45:56.644Z,5.00
2023-01-27T02:48:25.203Z,5.20
2023-01-27T02:50:52.528Z,4.53
2023-01-27T02:53:20.114Z,5.35
2023-01-27T02:55:47.410Z,5.35
2023-01-27T02:58:16.502Z,5.03
2023-01-27T03:00:47.666Z,4.93
2023-01-27T03:03:15.148Z,4.45
2023-01-27T03:05:42.524Z,4.68
2023-01-27T03:08:09.912Z,5.15
2023-01-27T03:10:37.196Z,5.43
2023-01-27T03:13:04.638Z,4.90
2023-01-27T03:15:50.524Z,5.38
2023-01-27T03:18:17.975Z,4.68
2023-01-27T03:20:46.986Z,5.47
2023-01-27T03:23:18.638Z,5.45
2023-01-27T03:25:49.963Z,3.83
2023-01-27T03:28:17.447Z,4.97
2023-01-27T03:30:59.878Z,4.93
2023-01-27T03:33:34.764Z,4.40
2023-01-27T03:36:27.878Z,5.38
2023-01-27T03:39:13.792Z,4.43
2023-01-27T03:41:59.617Z,5.03
2023-01-27T03:44:45.970Z,5.90
2023-01-27T03:47:13.321Z,5.75
2023-01-27T03:49:40.595Z,5.50
2023-01-27T03:52:07.928Z,5.37
2023-01-27T03:54:35.186Z,6.20
2023-01-27T03:57:06.391Z,5.72
2023-01-27T03:59:35.358Z,6.53
2023-01-27T04:02:21.333Z,6.78
2023-01-27T04:05:07.473Z,7.10
2023-01-27T04:07:36.273Z,6.30
2023-01-27T04:10:04.801Z,6.28
2023-01-27T04:12:32.587Z,5.90
2023-01-27T04:15:00.203Z,6.60
2023-01-27T04:17:27.509Z,5.37
2023-01-27T04:19:54.808Z,6.90
2023-01-27T04:22:22.217Z,6.13
2023-01-27T04:24:50.375Z,5.55
2023-01-27T04:27:19.018Z,5.03
2023-01-27T04:29:46.237Z,6.47
2023-01-27T04:32:13.966Z,6.40
2023-01-27T04:34:41.312Z,6.13
2023-01-27T04:37:08.843Z,5.63
2023-01-27T04:39:36.165Z,5.88
2023-01-27T04:42:03.628Z,6.40
2023-01-27T04:44:30.870Z,5.53
2023-01-27T04:46:58.188Z,5.22
2023-01-27T04:49:27.182Z,4.70
2023-01-27T04:51:55.372Z,4.53
2023-01-27T04:54:22.688Z,4.77
2023-01-27T04:56:58.095Z,4.18
2023-01-27T04:59:25.471Z,5.25
2023-01-27T05:01:52.797Z,3.63
2023-01-27T05:04:20.240Z,4.63
2023-01-27T05:06:47.503Z,3.97
2023-01-27T05:09:14.862Z,3.35
2023-01-27T05:11:42.185Z,4.22
2023-01-27T05:14:09.573Z,4.13
2023-01-27T05:16:38.585Z,4.32
2023-01-27T05:19:06.052Z,4.47
2023-01-27T05:21:33.303Z,4.25
2023-01-27T05:24:00.670Z,4.22
2023-01-27T05:26:28.343Z,4.03
2023-01-27T05:28:57.307Z,4.03
2023-01-27T05:31:26.601Z,4.40
2023-01-27T05:33:54.689Z,3.53
2023-01-27T05:36:23.043Z,4.47
2023-01-27T05:38:50.405Z,4.20
2023-01-27T05:41:18.452Z,4.10
2023-01-27T05:43:46.621Z,4.10
2023-01-27T05:46:15.529Z,4.28
2023-01-27T05:48:44.662Z,3.90
2023-01-27T05:51:14.706Z,4.80
2023-01-27T05:53:43.266Z,4.07
2023-01-27T05:56:11.632Z,5.20
2023-01-27T05:58:39.098Z,4.68
2023-01-27T06:01:33.782Z,4.63
2023-01-27T06:04:01.430Z,4.28
2023-01-27T06:06:29.880Z,5.53
2023-01-27T06:08:57.445Z,4.57
2023-01-27T06:11:24.961Z,5.07
2023-01-27T06:13:53.109Z,5.40
2023-01-27T06:16:21.026Z,6.10
2023-01-27T06:18:49.097Z,6.38
2023-01-27T06:21:16.507Z,5.00
2023-01-27T06:23:43.926Z,6.40
2023-01-27T06:26:13.209Z,6.28
2023-01-27T06:28:40.688Z,6.38
2023-01-27T06:31:12.624Z,6.47
2023-01-27T06:33:42.518Z,6.57
2023-01-27T06:36:11.947Z,6.25
2023-01-27T06:38:39.382Z,6.35
2023-01-27T06:41:07.149Z,7.18
2023-01-27T06:43:34.902Z,6.10
2023-01-27T06:46:05.393Z,5.47
2023-01-27T06:48:33.498Z,6.03
2023-01-27T06:51:00.981Z,6.32
2023-01-27T06:53:28.756Z,6.25
2023-01-27T06:56:00.741Z,7.28
2023-01-27T06:58:30.207Z,4.63
2023-01-27T07:00:57.733Z,6.95
2023-01-27T07:03:29.148Z,5.22
2023-01-27T07:06:00.381Z,5.38
2023-01-27T07:08:30.683Z,6.22
2023-01-27T07:10:58.736Z,6.27
2023-01-27T07:13:26.356Z,6.50
2023-01-27T07:15:55.502Z,6.22
2023-01-27T07:18:26.148Z,5.95
2023-01-27T07:20:59.976Z,7.05
2023-01-27T07:23:43.657Z,6.23
2023-01-27T07:26:24.508Z,5.40
2023-01-27T07:28:53.146Z,6.88
2023-01-27T07:31:21.135Z,5.93
2023-01-27T07:33:50.559Z,5.88
2023-01-27T07:36:51.754Z,5.67
2023-01-27T07:39:09.392Z,5.05
2023-01-27T07:41:39.878Z,5.53
2023-01-27T07:44:08.287Z,5.45
2023-01-27T07:46:49.434Z,5.78
2023-01-27T07:49:17.313Z,5.67
2023-01-27T07:51:44.808Z,5.78
2023-01-27T07:54:12.811Z,5.85
2023-01-27T07:56:43.608Z,5.93
2023-01-27T07:59:11.307Z,6.15
2023-01-27T08:01:39.921Z,5.83
2023-01-27T08:04:10.485Z,6.10
2023-01-27T08:06:39.492Z,5.00
2023-01-27T08:09:07.410Z,5.47
2023-01-27T08:11:55.537Z,5.65
2023-01-27T08:14:23.227Z,5.53
2023-01-27T08:16:51.155Z,5.63
2023-01-27T08:19:19.038Z,5.13
2023-01-27T08:21:46.751Z,5.72
2023-01-27T08:24:14.286Z,6.25
2023-01-27T08:26:41.915Z,5.20
2023-01-27T08:29:09.638Z,5.03
2023-01-27T08:31:37.143Z,6.63
2023-01-27T08:34:04.727Z,5.63
2023-01-27T08:36:32.378Z,5.40
2023-01-27T08:39:00.569Z,4.87
2023-01-27T08:41:28.123Z,4.90
2023-01-27T08:43:55.886Z,5.43
2023-01-27T08:46:26.614Z,5.70
2023-01-27T08:48:54.383Z,5.63
2023-01-27T08:51:21.907Z,5.37
2023-01-27T08:53:49.486Z,4.93
2023-01-27T08:56:16.811Z,4.38
2023-01-27T08:58:48.365Z,5.78
2023-01-27T09:01:20.462Z,4.63
2023-01-27T09:03:48.206Z,5.80
2023-01-27T09:06:16.745Z,5.28
2023-01-27T09:09:05.701Z,5.88
2023-01-27T09:11:33.449Z,5.80
2023-01-27T09:14:01.012Z,5.57
2023-01-27T09:16:29.238Z,6.03
2023-01-27T09:18:58.033Z,5.07
2023-01-27T09:21:26.400Z,5.38
2023-01-27T09:23:53.742Z,5.18
2023-01-27T09:26:29.667Z,4.57
2023-01-27T09:28:57.690Z,5.07
2023-01-27T09:31:25.504Z,5.32
2023-01-27T09:33:53.434Z,6.05
2023-01-27T09:36:22.090Z,4.88
2023-01-27T09:38:55.906Z,5.57
2023-01-27T09:41:35.630Z,4.30
2023-01-27T09:44:22.307Z,4.55
2023-01-27T09:47:02.371Z,4.85
2023-01-27T09:49:59.895Z,6.07
2023-01-27T09:52:48.692Z,4.95
2023-01-27T09:55:34.612Z,5.67
2023-01-27T09:58:08.287Z,5.70
2023-01-27T10:00:46.638Z,5.55
2023-01-27T10:03:23.822Z,5.35
2023-01-27T10:06:10.744Z,5.43
2023-01-27T10:09:44.040Z,6.27
2023-01-27T10:12:43.350Z,5.18
2023-01-27T10:15:17.177Z,5.70
2023-01-27T10:18:19.433Z,5.88
2023-01-27T10:21:18.252Z,5.30
2023-01-27T10:24:10.081Z,4.97
2023-01-27T10:26:50.492Z,5.80
2023-01-27T10:29:30.144Z,5.28
2023-01-27T10:32:37.900Z,6.55
2023-01-27T10:35:10.248Z,5.75
2023-01-27T10:37:46.979Z,6.33
2023-01-27T10:40:27.778Z,6.38
2023-01-27T10:43:08.397Z,5.88
2023-01-27T10:45:45.796Z,5.88
2023-01-27T10:48:30.697Z,5.10
2023-01-27T10:51:17.550Z,5.57
2023-01-27T10:53:50.630Z,6.10
2023-01-27T10:56:25.015Z,5.75
2023-01-27T10:59:22.718Z,5.82
2023-01-27T11:01:53.661Z,5.90
2023-01-27T11:04:24.232Z,5.43
2023-01-27T11:06:52.090Z,4.72
2023-01-27T11:09:28.932Z,5.68
2023-01-27T11:12:03.002Z,4.85
2023-01-27T11:14:32.619Z,4.65
2023-01-27T11:17:28.225Z,4.67
2023-01-27T11:20:06.653Z,4.55
2023-01-27T11:23:05.211Z,5.10
2023-01-27T11:26:12.463Z,4.47
2023-01-27T11:28:52.445Z,4.20
2023-01-27T11:31:37.754Z,5.00
2023-01-27T11:34:13.824Z,4.88
2023-01-27T11:36:42.159Z,5.30
2023-01-27T11:39:12.381Z,5.03
2023-01-27T11:41:54.388Z,4.63
2023-01-27T11:44:26.849Z,5.13
2023-01-27T11:46:54.872Z,5.22
2023-01-27T11:49:26.356Z,5.30
2023-01-27T11:52:06.364Z,6.40
2023-01-27T11:54:42.380Z,6.18
2023-01-27T11:57:18.592Z,6.03
2023-01-27T11:59:47.539Z,6.07
2023-01-27T12:02:44.845Z,5.68
2023-01-27T12:05:19.544Z,4.05
2023-01-27T12:07:56.396Z,6.10
2023-01-27T12:10:39.373Z,6.63
2023-01-27T12:13:20.181Z,5.90
2023-01-27T12:15:59.086Z,4.57
2023-01-27T12:18:26.568Z,7.53
2023-01-27T12:20:59.392Z,5.68
2023-01-27T12:23:36.594Z,7.90
2023-01-27T12:26:08.357Z,6.53
2023-01-27T12:28:49.418Z,6.43
2023-01-27T12:31:29.429Z,7.28
2023-01-27T12:34:06.125Z,5.90
2023-01-27T12:36:37.857Z,5.57
2023-01-27T12:39:08.986Z,5.50
2023-01-27T12:41:39.938Z,6.97
2023-01-27T12:44:17.897Z,6.75
2023-01-27T12:47:13.473Z,6.70
2023-01-27T12:49:43.774Z,6.97
2023-01-27T12:52:20.910Z,5.82
2023-01-27T12:54:51.351Z,6.95
2023-01-27T12:57:23.171Z,6.70
2023-01-27T13:00:00.654Z,6.90
2023-01-27T13:02:32.271Z,7.20
2023-01-27T13:05:04.031Z,6.53
2023-01-27T13:07:52.534Z,8.00
2023-01-27T13:10:23.652Z,9.25
2023-01-27T13:12:57.644Z,7.32
2023-01-27T13:15:28.678Z,7.17
2023-01-27T13:18:00.289Z,7.35
2023-01-27T13:20:31.127Z,8.27
2023-01-27T13:23:20.659Z,7.45
2023-01-27T13:26:15.416Z,7.40
2023-01-27T13:29:04.544Z,8.23
2023-01-27T13:31:59.331Z,7.55
2023-01-27T13:34:45.317Z,8.50
2023-01-27T13:37:19.173Z,8.55
2023-01-27T13:40:17.348Z,8.50
2023-01-27T13:43:09.369Z,8.03
2023-01-27T13:45:53.554Z,9.15
2023-01-27T13:48:35.549Z,8.98
2023-01-27T13:51:11.884Z,10.23
2023-01-27T13:53:39.502Z,7.82
2023-01-27T13:56:21.757Z,9.37
2023-01-27T13:59:01.967Z,7.60
2023-01-27T14:01:41.351Z,9.93
2023-01-27T14:04:36.242Z,11.05
2023-01-27T14:07:15.777Z,11.30
2023-01-27T14:09:49.783Z,9.33
2023-01-27T14:12:42.632Z,9.98
2023-01-27T14:15:30.093Z,9.25
2023-01-27T14:18:00.441Z,8.68
2023-01-27T14:20:55.710Z,11.00
2023-01-27T14:23:51.128Z,11.10
2023-01-27T14:26:37.244Z,10.63
2023-01-27T14:29:32.084Z,9.75
2023-01-27T14:32:26.704Z,9.80
2023-01-27T14:35:25.158Z,9.90
2023-01-27T14:38:40.292Z,11.10
2023-01-27T14:41:23.307Z,10.43
2023-01-27T14:44:14.558Z,11.25
2023-01-27T14:47:01.673Z,9.73
2023-01-27T14:49:47.050Z,9.20
2023-01-27T14:52:20.531Z,10.13
2023-01-27T14:55:15.990Z,9.88
2023-01-27T14:57:43.497Z,9.48
2023-01-27T15:00:19.589Z,9.23
2023-01-27T15:03:11.857Z,10.88
2023-01-27T15:05:50.980Z,8.80
2023-01-27T15:08:36.124Z,8.85
2023-01-27T15:11:22.216Z,8.68
2023-01-27T15:14:04.238Z,10.05
2023-01-27T15:16:38.321Z,8.77
2023-01-27T15:19:19.288Z,9.20
2023-01-27T15:22:16.975Z,9.00
2023-01-27T15:25:06.396Z,8.93
2023-01-27T15:27:34.649Z,10.35
2023-01-27T15:30:08.323Z,10.32
2023-01-27T15:32:39.570Z,10.17
2023-01-27T15:35:25.048Z,10.15
2023-01-27T15:38:00.115Z,10.52
2023-01-27T15:40:27.878Z,11.35
2023-01-27T15:42:58.212Z,9.55
2023-01-27T15:45:36.278Z,10.53
2023-01-27T15:48:10.198Z,10.23
2023-01-27T15:50:38.990Z,10.85
2023-01-27T15:53:17.815Z,9.95
2023-01-27T15:55:53.604Z,8.77
2023-01-27T15:58:35.767Z,10.93
2023-01-27T16:01:04.573Z,9.73
2023-01-27T16:03:45.490Z,10.93
2023-01-27T16:06:17.947Z,9.30
2023-01-27T16:08:48.722Z,9.80
2023-01-27T16:11:25.321Z,10.17
2023-01-27T16:13:52.987Z,10.40
2023-01-27T16:16:20.367Z,10.35
2023-01-27T16:19:01.222Z,9.60
2023-01-27T16:21:42.391Z,9.25
2023-01-27T16:24:31.299Z,10.33
2023-01-27T16:27:09.024Z,8.43
2023-01-27T16:29:50.343Z,9.85
2023-01-27T16:32:19.360Z,10.27
2023-01-27T16:34:47.956Z,10.15
2023-01-27T16:37:25.212Z,10.43
2023-01-27T16:40:15.325Z,10.23
2023-01-27T16:42:53.178Z,10.45
2023-01-27T16:45:25.316Z,9.18
2023-01-27T16:47:52.716Z,10.38
2023-01-27T16:50:37.201Z,12.33
2023-01-27T16:53:05.973Z,9.30
2023-01-27T16:55:33.360Z,9.23
2023-01-27T16:58:00.813Z,11.70
2023-01-27T17:00:37.214Z,9.65
2023-01-27T17:03:08.699Z,11.13
2023-01-27T17:05:36.055Z,9.00
2023-01-27T17:08:04.696Z,10.73
2023-01-27T17:10:35.147Z,10.90
2023-01-27T17:13:28.472Z,11.57
2023-01-27T17:15:56.254Z,10.33
2023-01-27T17:18:26.013Z,10.07
2023-01-27T17:20:53.575Z,11.38
2023-01-27T17:23:39.515Z,12.32
2023-01-27T17:26:27.965Z,12.95
2023-01-27T17:28:55.362Z,12.40
2023-01-27T17:31:23.878Z,12.88
2023-01-27T17:33:58.332Z,10.63
2023-01-27T17:36:25.748Z,11.10
2023-01-27T17:38:54.647Z,10.60
2023-01-27T17:41:36.029Z,8.10
2023-01-27T17:44:09.704Z,9.15
2023-01-27T17:46:37.410Z,11.25
2023-01-27T17:49:11.233Z,12.27
2023-01-27T17:51:42.575Z,12.00
2023-01-27T17:54:41.714Z,11.47
2023-01-27T17:57:21.538Z,12.38
2023-01-27T18:00:04.632Z,11.32
2023-01-27T18:02:54.891Z,11.27
2023-01-27T18:05:24.241Z,12.77
2023-01-27T18:07:51.580Z,9.93
2023-01-27T18:10:23.037Z,8.70
2023-01-27T18:12:50.409Z,10.23
2023-01-27T18:15:38.684Z,11.02
2023-01-27T18:18:23.736Z,11.18
2023-01-27T18:21:09.287Z,9.20
2023-01-27T18:23:38.436Z,10.23
2023-01-27T18:26:18.148Z,10.95
2023-01-27T18:28:46.010Z,11.57
2023-01-27T18:31:25.295Z,11.73
2023-01-27T18:34:26.383Z,8.60
2023-01-27T18:37:08.868Z,10.45
2023-01-27T18:39:40.695Z,10.40
2023-01-27T18:42:16.199Z,11.38
2023-01-27T18:44:43.746Z,11.48
2023-01-27T18:47:20.475Z,10.47
2023-01-27T18:49:56.607Z,10.18
2023-01-27T18:52:24.057Z,7.63
2023-01-27T18:54:53.929Z,9.75
2023-01-27T18:57:21.428Z,9.85
2023-01-27T18:59:48.780Z,10.53
2023-01-27T19:02:16.241Z,10.23
2023-01-27T19:04:43.609Z,9.88
2023-01-27T19:07:15.989Z,10.35
2023-01-27T19:09:44.369Z,11.48
2023-01-27T19:12:12.203Z,11.57
2023-01-27T19:14:42.017Z,11.65
2023-01-27T19:17:23.249Z,9.98
2023-01-27T19:19:50.644Z,9.15
2023-01-27T19:22:18.728Z,10.48
2023-01-27T19:24:46.450Z,11.53
2023-01-27T19:27:14.780Z,9.82
2023-01-27T19:29:42.358Z,10.20
2023-01-27T19:32:13.918Z,9.88
2023-01-27T19:34:41.454Z,11.20
2023-01-27T19:37:18.603Z,9.13
2023-01-27T19:39:46.730Z,11.15
2023-01-27T19:42:15.056Z,11.15
2023-01-27T19:44:42.542Z,10.65
2023-01-27T19:47:13.854Z,10.68
2023-01-27T19:49:41.937Z,12.67
2023-01-27T19:52:10.207Z,9.80
2023-01-27T19:54:37.555Z,10.52
2023-01-27T19:57:06.542Z,10.82
2023-01-27T19:59:34.005Z,12.10
2023-01-27T20:02:01.381Z,10.43
2023-01-27T20:04:29.046Z,11.75
2023-01-27T20:06:56.394Z,10.05
2023-01-27T20:09:23.755Z,10.93
2023-01-27T20:11:51.171Z,10.50
2023-01-27T20:14:19.403Z,10.10
2023-01-27T20:16:47.103Z,11.57
2023-01-27T20:19:15.429Z,8.20
2023-01-27T20:21:43.560Z,13.05
2023-01-27T20:24:17.718Z,9.00
2023-01-27T20:26:45.425Z,8.63
2023-01-27T20:29:14.218Z,9.63
2023-01-27T20:31:42.016Z,10.10
2023-01-27T20:34:09.441Z,10.68
2023-01-27T20:36:37.036Z,12.23
2023-01-27T20:39:04.542Z,11.23
2023-01-27T20:41:31.940Z,10.02
2023-01-27T20:44:00.682Z,9.00
2023-01-27T20:46:28.727Z,10.75
2023-01-27T20:48:56.617Z,9.13
2023-01-27T20:51:23.984Z,9.60
2023-01-27T20:53:51.353Z,8.55
2023-01-27T20:56:23.022Z,9.10
2023-01-27T20:58:50.440Z,10.68
2023-01-27T21:01:19.381Z,7.80
2023-01-27T21:03:46.783Z,9.27
2023-01-27T21:06:15.789Z,8.80
2023-01-27T21:08:43.798Z,11.15
2023-01-27T21:11:13.126Z,8.82
2023-01-27T21:13:40.676Z,10.60
2023-01-27T21:16:08.131Z,10.33
2023-01-27T21:18:36.170Z,10.02
2023-01-27T21:21:04.289Z,11.48
2023-01-27T21:23:33.223Z,10.20
2023-01-27T21:26:04.945Z,10.95
2023-01-27T21:28:34.001Z,9.70
2023-01-27T21:31:08.358Z,8.65
2023-01-27T21:33:36.426Z,7.97
2023-01-27T21:36:04.789Z,7.00
2023-01-27T21:38:32.634Z,8.73
2023-01-27T21:41:06.746Z,7.87
2023-01-27T21:43:52.598Z,9.52
2023-01-27T21:46:20.010Z,9.25
2023-01-27T21:48:47.654Z,9.52
2023-01-27T21:51:15.140Z,10.25
2023-01-27T21:53:42.364Z,10.20
2023-01-27T21:56:10.518Z,9.93
2023-01-27T21:58:37.840Z,8.50
2023-01-27T22:01:09.034Z,9.32
2023-01-27T22:03:36.787Z,9.50
2023-01-27T22:06:07.851Z,9.20
2023-01-27T22:08:35.402Z,9.23
2023-01-27T22:11:04.340Z,9.15
2023-01-27T22:13:31.748Z,10.15
2023-01-27T22:15:59.577Z,10.00
2023-01-27T22:18:26.984Z,10.10
2023-01-27T22:20:54.294Z,10.23
2023-01-27T22:23:23.788Z,9.20
2023-01-27T22:25:51.321Z,10.10
2023-01-27T22:28:19.280Z,8.95
2023-01-27T22:30:46.559Z,9.33
2023-01-27T22:33:13.949Z,8.38
2023-01-27T22:35:41.241Z,11.35
2023-01-27T22:38:08.698Z,8.23
2023-01-27T22:40:36.000Z,10.38
2023-01-27T22:43:09.535Z,9.73
2023-01-27T22:45:40.186Z,9.85
2023-01-27T22:48:09.045Z,8.98
2023-01-27T22:50:36.918Z,9.77
2023-01-27T22:53:05.543Z,10.45
2023-01-27T22:55:33.281Z,9.50
2023-01-27T22:58:00.583Z,7.43
2023-01-27T23:00:27.836Z,9.27
2023-01-27T23:02:55.194Z,10.25
2023-01-27T23:05:22.465Z,9.25
2023-01-27T23:07:49.788Z,10.70
2023-01-27T23:10:17.361Z,8.90
2023-01-27T23:12:44.799Z,9.05
2023-01-27T23:15:12.520Z,7.30
2023-01-27T23:17:40.091Z,9.13
2023-01-27T23:20:10.761Z,8.43
2023-01-27T23:22:38.161Z,7.97
2023-01-27T23:25:06.412Z,7.15
2023-01-27T23:27:33.952Z,8.15
2023-01-27T23:30:01.236Z,8.52
2023-01-27T23:32:28.574Z,8.13
2023-01-27T23:34:55.882Z,8.25
2023-01-27T23:37:23.250Z,6.78
2023-01-27T23:39:50.524Z,9.30
2023-01-27T23:42:18.126Z,7.32
2023-01-27T23:44:45.526Z,8.77
2023-01-27T23:47:13.148Z,8.40
2023-01-27T23:49:40.424Z,8.48
2023-01-27T23:52:07.872Z,7.93
2023-01-27T23:54:35.144Z,6.22
2023-01-27T23:57:02.764Z,7.93
2023-01-27T23:59:30.065Z,8.38
